Time;durP1;ratioP1;P1;durP2;ratioP2;P2;SDS_P1;SDS_P2;PMS_P1;PMS_P2;Temp;Humidity;BMP_temperature;BMP_pressure;BME280_temperature;BME280_humidity;BME280_pressure;Samples;Min_cycle;Max_cycle;Signal;HPM_P1;HPM_P2
2022/03/20 00:03:32;;;;;;;27.7;46.1;;;;;;;-2.4;54.5;101210;;;;
2022/03/20 00:13:32;;;;;;;27.7;46.1;;;;;;;-2.6;54.9;101210;;;;
2022/03/20 00:24:32;;;;;;;25.5;43.7;;;;;;;-3.1;54.8;101210;;;;
2022/03/20 00:34:32;;;;;;;25.5;43.7;;;;;;;-3.3;55.7;101210;;;;
2022/03/20 00:44:32;;;;;;;25.5;43.7;;;;;;;-3.2;57.4;101200;;;;
2022/03/20 00:55:32;;;;;;;25.9;43.7;;;;;;;-3.6;57.1;101200;;;;
2022/03/20 01:05:32;;;;;;;25.9;43.7;;;;;;;-3.7;57.5;101200;;;;
2022/03/20 01:16:32;;;;;;;25.9;43.7;;;;;;;-4;58.6;101200;;;;
2022/03/20 01:26:32;;;;;;;29.7;53.5;;;;;;;-4.1;59.9;101210;;;;
2022/03/20 01:36:32;;;;;;;29.7;53.5;;;;;;;-4.2;60.2;101210;;;;
2022/03/20 01:47:32;;;;;;;29.7;53.5;;;;;;;-4.5;59.7;101210;;;;
2022/03/20 01:58:32;;;;;;;29.1;51.2;;;;;;;-4.6;60.3;101200;;;;
2022/03/20 02:09:32;;;;;;;29.1;51.2;;;;;;;-4.4;62.1;101190;;;;
2022/03/20 02:19:34;;;;;;;26;42.4;;;;;;;-4.5;61.2;101200;;;;
2022/03/20 02:29:32;;;;;;;26;42.4;;;;;;;-4.7;61.3;101190;;;;
2022/03/20 02:40:34;;;;;;;26;42.4;;;;;;;-4.4;63;101180;;;;
2022/03/20 02:50:32;;;;;;;24.4;40.9;;;;;;;-4.4;62.3;101180;;;;
2022/03/20 03:00:32;;;;;;;24.4;40.9;;;;;;;-4.5;61.9;101190;;;;
2022/03/20 03:11:32;;;;;;;24.4;40.9;;;;;;;-4.7;62;101190;;;;
2022/03/20 03:21:32;;;;;;;22.6;41;;;;;;;-4.9;62.9;101180;;;;
2022/03/20 03:32:32;;;;;;;22.6;41;;;;;;;-5;63.2;101190;;;;
2022/03/20 03:43:32;;;;;;;22.6;41;;;;;;;-5.2;63.9;101190;;;;
2022/03/20 03:54:32;;;;;;;24.2;43.6;;;;;;;-5.3;63.8;101200;;;;
2022/03/20 04:05:34;;;;;;;24.2;43.6;;;;;;;-5.2;64.8;101200;;;;
2022/03/20 04:15:33;;;;;;;24.2;43.6;;;;;;;-5.1;64.9;101200;;;;
2022/03/20 04:26:33;;;;;;;24.2;39.4;;;;;;;-5.1;65;101210;;;;
2022/03/20 04:36:34;;;;;;;24.2;39.4;;;;;;;-5.2;65.7;101210;;;;
2022/03/20 04:58:32;;;;;;;22;38.5;;;;;;;-5.1;65.8;101230;;;;
2022/03/20 05:08:32;;;;;;;22;38.5;;;;;;;-4.8;66.2;101240;;;;
2022/03/20 05:18:33;;;;;;;24.3;41.7;;;;;;;-4.6;65.6;101240;;;;
2022/03/20 05:28:32;;;;;;;24.3;41.7;;;;;;;-4.4;65.5;101250;;;;
2022/03/20 05:39:33;;;;;;;24.3;41.7;;;;;;;-4;64.7;101260;;;;
2022/03/20 05:50:32;;;;;;;26.1;42.8;;;;;;;-3.7;63.8;101270;;;;
2022/03/20 06:00:32;;;;;;;26.1;42.8;;;;;;;-3.3;62.6;101280;;;;
2022/03/20 06:10:32;;;;;;;26.1;42.8;;;;;;;-3;61.6;101280;;;;
2022/03/20 06:20:34;;;;;;;27.7;39.8;;;;;;;-2.7;61.5;101300;;;;
2022/03/20 06:31:33;;;;;;;27.7;39.8;;;;;;;-2.3;61.3;101310;;;;
2022/03/20 06:42:32;;;;;;;27.7;39.8;;;;;;;-1.9;60;101320;;;;
2022/03/20 06:52:33;;;;;;;30.8;46.4;;;;;;;-1.5;59.2;101330;;;;
2022/03/20 07:03:32;;;;;;;30.8;46.4;;;;;;;-1.2;58.3;101350;;;;
2022/03/20 07:13:48;;;;;;;30.8;46.4;;;;;;;-0.8;57;101350;;;;
2022/03/20 07:23:33;;;;;;;36.6;51.2;;;;;;;-0.2;55.6;101360;;;;
2022/03/20 07:33:33;;;;;;;36.6;51.2;;;;;;;0.2;54.6;101370;;;;
2022/03/20 07:44:32;;;;;;;36.6;51.2;;;;;;;0.6;53.9;101380;;;;
2022/03/20 07:55:34;;;;;;;40.3;50.8;;;;;;;1.2;52.8;101380;;;;
2022/03/20 08:06:32;;;;;;;40.3;50.8;;;;;;;1.8;51.4;101380;;;;
2022/03/20 08:16:36;;;;;;;40.3;50.8;;;;;;;2.3;50.8;101380;;;;
2022/03/20 08:27:33;;;;;;;40.7;45.4;;;;;;;3;49.1;101390;;;;
2022/03/20 08:38:33;;;;;;;40.7;45.4;;;;;;;3.1;48.4;101380;;;;
2022/03/20 08:49:33;;;;;;;41.4;48.2;;;;;;;3.8;47.2;101360;;;;
2022/03/20 09:00:33;;;;;;;41.4;48.2;;;;;;;4.6;45.3;101360;;;;
2022/03/20 09:10:33;;;;;;;41.4;48.2;;;;;;;5.3;44.1;101350;;;;
2022/03/20 09:21:33;;;;;;;34.5;38.7;;;;;;;5.9;42.3;101340;;;;
2022/03/20 09:32:33;;;;;;;34.5;38.7;;;;;;;6.2;40.7;101330;;;;
2022/03/20 09:42:34;;;;;;;34.5;38.7;;;;;;;6.6;39.6;101320;;;;
2022/03/20 09:52:33;;;;;;;30.9;39.1;;;;;;;7.2;38.4;101330;;;;
2022/03/20 10:02:33;;;;;;;30.9;39.1;;;;;;;7.5;37.3;101330;;;;
2022/03/20 10:12:33;;;;;;;30.9;39.1;;;;;;;7.7;36.2;101330;;;;
2022/03/20 10:23:33;;;;;;;24.7;33.4;;;;;;;7.7;35.4;101330;;;;
2022/03/20 10:34:33;;;;;;;24.7;33.4;;;;;;;7.8;35.8;101330;;;;
2022/03/20 10:44:33;;;;;;;24.7;33.4;;;;;;;8;35.5;101320;;;;
2022/03/20 10:54:33;;;;;;;22.5;30.5;;;;;;;8.2;34.7;101310;;;;
2022/03/20 11:04:33;;;;;;;22.5;30.5;;;;;;;8.3;34;101290;;;;
2022/03/20 11:15:34;;;;;;;22.5;30.5;;;;;;;8.9;33;101260;;;;
2022/03/20 11:25:35;;;;;;;17.6;23;;;;;;;9.4;30.7;101250;;;;
2022/03/20 11:35:33;;;;;;;17.6;23;;;;;;;9.5;28.5;101240;;;;
2022/03/20 11:45:33;;;;;;;17.6;23;;;;;;;9.8;28;101230;;;;
2022/03/20 11:55:33;;;;;;;10.7;13.2;;;;;;;9.8;27.7;101210;;;;
2022/03/20 12:05:33;;;;;;;10.7;13.2;;;;;;;9.6;27.8;101210;;;;
2022/03/20 12:16:33;;;;;;;10.7;13.2;;;;;;;10;27.2;101190;;;;
2022/03/20 12:26:34;;;;;;;9.7;13.3;;;;;;;10.1;28;101180;;;;
2022/03/20 12:36:33;;;;;;;9.7;13.3;;;;;;;10.4;27.9;101170;;;;
2022/03/20 12:47:33;;;;;;;10.4;15.7;;;;;;;10.5;27.5;101170;;;;
2022/03/20 12:58:33;;;;;;;10.4;15.7;;;;;;;10.3;28.2;101160;;;;
2022/03/20 13:09:33;;;;;;;10.4;15.7;;;;;;;10.6;27.3;101150;;;;
2022/03/20 13:19:33;;;;;;;9.8;12;;;;;;;10.3;26.5;101140;;;;
2022/03/20 13:29:33;;;;;;;9.8;12;;;;;;;10.6;26.5;101140;;;;
2022/03/20 13:40:33;;;;;;;9.8;12;;;;;;;10.5;26;101130;;;;
2022/03/20 13:50:33;;;;;;;10.5;12.8;;;;;;;10.7;23.9;101120;;;;
2022/03/20 14:01:33;;;;;;;10.5;12.8;;;;;;;10.7;25.6;101120;;;;
2022/03/20 14:12:33;;;;;;;10.5;12.8;;;;;;;10.7;25.6;101110;;;;
2022/03/20 14:23:34;;;;;;;14.8;17.5;;;;;;;10.7;24.5;101100;;;;
2022/03/20 14:43:33;;;;;;;14.8;17.5;;;;;;;10.8;24.1;101090;;;;
2022/03/20 14:53:33;;;;;;;6.2;8.1;;;;;;;10.7;23.6;101080;;;;
2022/03/20 15:04:34;;;;;;;6.2;8.1;;;;;;;10.3;23.8;101080;;;;
2022/03/20 15:15:33;;;;;;;6.2;8.1;;;;;;;10.2;24;101070;;;;
2022/03/20 15:25:33;;;;;;;6.6;9.3;;;;;;;9.9;25.5;101080;;;;
2022/03/20 15:35:33;;;;;;;6.6;9.3;;;;;;;10.5;25.6;101070;;;;
2022/03/20 15:45:33;;;;;;;6.6;9.3;;;;;;;10.1;25.1;101070;;;;
2022/03/20 15:56:33;;;;;;;5.9;7.9;;;;;;;10.7;24.2;101060;;;;
2022/03/20 16:07:33;;;;;;;5.9;7.9;;;;;;;10.1;24.8;101060;;;;
2022/03/20 16:17:33;;;;;;;6.6;10.1;;;;;;;9.2;26.3;101060;;;;
2022/03/20 16:28:33;;;;;;;6.6;10.1;;;;;;;8.6;27.5;101060;;;;
2022/03/20 16:38:33;;;;;;;6.6;10.1;;;;;;;8;28;101050;;;;
2022/03/20 16:48:33;;;;;;;14.2;19;;;;;;;7.4;29;101060;;;;
2022/03/20 16:58:33;;;;;;;14.2;19;;;;;;;6.9;29.7;101060;;;;
2022/03/20 17:09:33;;;;;;;14.2;19;;;;;;;6.4;30.1;101060;;;;
2022/03/20 17:19:33;;;;;;;8.9;11.3;;;;;;;5.9;30.8;101070;;;;
2022/03/20 17:30:34;;;;;;;8.9;11.3;;;;;;;5.7;31.5;101080;;;;
2022/03/20 17:40:33;;;;;;;8.9;11.3;;;;;;;5.4;32.1;101080;;;;
2022/03/20 17:50:33;;;;;;;12;17.4;;;;;;;5.3;32.9;101080;;;;
2022/03/20 18:01:33;;;;;;;12;17.4;;;;;;;5.2;33.5;101090;;;;
2022/03/20 18:12:34;;;;;;;12;17.4;;;;;;;5;34.5;101090;;;;
2022/03/20 18:23:33;;;;;;;19.1;22.3;;;;;;;4.9;35.3;101100;;;;
2022/03/20 18:34:33;;;;;;;19.1;22.3;;;;;;;4.8;35.8;101100;;;;
2022/03/20 18:44:33;;;;;;;19.1;22.3;;;;;;;4.6;36.4;101090;;;;
2022/03/20 18:55:33;;;;;;;18.6;24.1;;;;;;;4.2;37.4;101090;;;;
2022/03/20 19:05:33;;;;;;;18.6;24.1;;;;;;;4;38.3;101090;;;;
2022/03/20 19:15:34;;;;;;;18.6;24.1;;;;;;;3.9;38.7;101090;;;;
2022/03/20 19:26:33;;;;;;;19.5;23.5;;;;;;;3.6;39.6;101100;;;;
2022/03/20 19:48:33;;;;;;;22.4;29.2;;;;;;;3.4;40.4;101090;;;;
2022/03/20 19:58:33;;;;;;;22.4;29.2;;;;;;;3.2;41.2;101090;;;;
2022/03/20 20:08:33;;;;;;;22.4;29.2;;;;;;;2.9;42.1;101090;;;;
2022/03/20 20:18:33;;;;;;;25.5;31.9;;;;;;;2.7;42.5;101080;;;;
2022/03/20 20:29:33;;;;;;;25.5;31.9;;;;;;;2.5;42.7;101080;;;;
2022/03/20 20:39:34;;;;;;;25.5;31.9;;;;;;;1.9;43.3;101090;;;;
2022/03/20 20:50:33;;;;;;;34.1;46.7;;;;;;;1.5;44.2;101080;;;;
2022/03/20 21:00:33;;;;;;;34.1;46.7;;;;;;;1.1;45.3;101090;;;;
2022/03/20 21:11:07;;;;;;;34.1;46.7;;;;;;;0.6;45.6;101090;;;;
2022/03/20 21:21:33;;;;;;;27.8;34.5;;;;;;;0.2;46.6;101080;;;;
2022/03/20 21:32:34;;;;;;;27.8;34.5;;;;;;;0;47.4;101080;;;;
2022/03/20 21:43:33;;;;;;;27.8;34.5;;;;;;;-0.3;48.1;101080;;;;
2022/03/20 21:53:33;;;;;;;23.3;32.1;;;;;;;-0.6;48.6;101080;;;;
2022/03/20 22:04:33;;;;;;;23.3;32.1;;;;;;;-1.1;49.4;101080;;;;
2022/03/20 22:15:34;;;;;;;23;33.2;;;;;;;-1.4;50.9;101090;;;;
2022/03/20 22:26:33;;;;;;;23;33.2;;;;;;;-1.7;51.3;101090;;;;
2022/03/20 22:46:33;;;;;;;20.8;32.2;;;;;;;-2.1;52.5;101090;;;;
2022/03/20 22:57:33;;;;;;;20.8;32.2;;;;;;;-2.3;54.7;101100;;;;
2022/03/20 23:08:36;;;;;;;20.8;32.2;;;;;;;-2.5;55.9;101100;;;;
2022/03/20 23:18:34;;;;;;;23.6;38.6;;;;;;;-2.6;56.7;101100;;;;
2022/03/20 23:29:33;;;;;;;23.6;38.6;;;;;;;-2.8;56.5;101100;;;;
2022/03/20 23:39:33;;;;;;;23.6;38.6;;;;;;;-2.9;56.1;101090;;;;
2022/03/20 23:49:33;;;;;;;19.8;32.8;;;;;;;-3.1;56.4;101090;;;;
2022/03/20 23:59:33;;;;;;;19.8;32.8;;;;;;;-3.1;57.6;101080;;;;
